Time;durP1;ratioP1;P1;durP2;ratioP2;P2;SDS_P1;SDS_P2;PMS_P1;PMS_P2;Temp;Humidity;BMP_temperature;BMP_pressure;BME280_temperature;BME280_humidity;BME280_pressure;Samples;Min_cycle;Max_cycle;Signal;HPM_P1;HPM_P2
2022/01/15 00:02:04;;;;;;;45.17;17.13;;;;;;;;;;5073144;28;20108;-84
2022/01/15 00:04:29;;;;;;;44.58;17.20;;;;;;;;;;5078018;28;20038;-84
2022/01/15 00:06:54;;;;;;;43.30;16.95;;;;;;;;;;5089130;28;20950;-83
2022/01/15 00:09:20;;;;;;;43.63;17.15;;;;;;;;;;5080337;28;20163;-83
2022/01/15 00:11:45;;;;;;;38.17;15.75;;;;;;;;;;5080905;28;20028;-83
2022/01/15 00:14:12;;;;;;;39.58;15.60;;;;;;;;;;5076842;28;20397;-84
2022/01/15 00:16:46;;;;;;;36.30;15.05;;;;;;;;;;5081577;28;20039;-83
2022/01/15 00:19:14;;;;;;;41.13;15.60;;;;;;;;;;5076737;28;20028;-84
2022/01/15 00:21:39;;;;;;;42.83;16.27;;;;;;;;;;5077205;28;20023;-84
2022/01/15 00:24:06;;;;;;;43.75;16.80;;;;;;;;;;5076207;28;20038;-83
2022/01/15 00:26:32;;;;;;;41.05;15.80;;;;;;;;;;5074993;28;20081;-84
2022/01/15 00:28:57;;;;;;;41.30;15.90;;;;;;;;;;5076126;28;20044;-83
2022/01/15 00:31:23;;;;;;;41.28;16.58;;;;;;;;;;5070359;28;20044;-84
2022/01/15 00:33:48;;;;;;;39.33;16.15;;;;;;;;;;5073277;28;20024;-83
2022/01/15 00:36:15;;;;;;;33.83;14.18;;;;;;;;;;5072374;28;20035;-83
2022/01/15 00:38:41;;;;;;;36.35;14.45;;;;;;;;;;5078812;28;20024;-83
2022/01/15 00:41:06;;;;;;;41.40;16.15;;;;;;;;;;5072111;28;20099;-83
2022/01/15 00:43:32;;;;;;;46.35;16.20;;;;;;;;;;5075422;28;20024;-83
2022/01/15 00:45:57;;;;;;;44.20;17.25;;;;;;;;;;5075903;28;20075;-83
2022/01/15 00:48:24;;;;;;;38.25;16.10;;;;;;;;;;5071269;28;20074;-84
2022/01/15 00:50:50;;;;;;;35.05;14.23;;;;;;;;;;5073864;28;20035;-84
2022/01/15 00:53:15;;;;;;;38.13;15.73;;;;;;;;;;5075605;28;20020;-83
2022/01/15 00:55:40;;;;;;;39.03;15.70;;;;;;;;;;5070966;28;20537;-84
2022/01/15 00:58:06;;;;;;;40.47;15.25;;;;;;;;;;5074958;28;20024;-83
2022/01/15 01:00:31;;;;;;;33.58;14.02;;;;;;;;;;5075297;28;20028;-83
2022/01/15 01:02:57;;;;;;;39.47;14.80;;;;;;;;;;5073432;28;20673;-83
2022/01/15 01:05:22;;;;;;;35.55;14.52;;;;;;;;;;5068585;28;20463;-83
2022/01/15 01:07:48;;;;;;;35.72;14.15;;;;;;;;;;5077767;28;20028;-84
2022/01/15 01:10:40;;;;;;;35.00;14.30;;;;;;;;;;5082972;28;20077;-83
2022/01/15 01:23:44;;;;;;;36.67;14.57;;;;;;;;;;5084121;28;20047;-83
2022/01/15 01:26:24;;;;;;;39.17;14.82;;;;;;;;;;5084533;28;20386;-85
2022/01/15 01:28:58;;;;;;;39.10;15.15;;;;;;;;;;5078368;28;20567;-84
2022/01/15 01:31:33;;;;;;;41.05;16.85;;;;;;;;;;5077940;28;20020;-83
2022/01/15 01:34:06;;;;;;;32.88;12.93;;;;;;;;;;5075734;28;20123;-84
2022/01/15 01:37:18;;;;;;;;;;;;;;;;;;5077042;28;20035;-84
2022/01/15 01:39:22;;;;;;;32.55;12.40;;;;;;;;;;5071562;28;20003;-82
2022/01/15 01:42:05;;;;;;;35.60;13.02;;;;;;;;;;5079469;28;20037;-84
2022/01/15 01:44:30;;;;;;;35.35;13.20;;;;;;;;;;5082209;28;20032;-82
2022/01/15 01:47:03;;;;;;;35.35;13.75;;;;;;;;;;5080078;28;20039;-82
2022/01/15 01:49:29;;;;;;;35.40;12.63;;;;;;;;;;5079029;28;20074;-83
2022/01/15 01:51:54;;;;;;;36.03;13.30;;;;;;;;;;5082011;28;20023;-83
2022/01/15 01:54:19;;;;;;;33.30;12.35;;;;;;;;;;5078087;28;20105;-83
2022/01/15 01:56:47;;;;;;;34.35;12.68;;;;;;;;;;5078814;28;20111;-83
2022/01/15 01:59:14;;;;;;;32.80;12.20;;;;;;;;;;5075910;28;20061;-83
2022/01/15 02:01:40;;;;;;;34.35;12.88;;;;;;;;;;5075463;28;20070;-85
2022/01/15 02:04:06;;;;;;;39.35;13.50;;;;;;;;;;5071881;28;20039;-83
2022/01/15 02:06:31;;;;;;;43.35;13.95;;;;;;;;;;5074999;28;20032;-83
2022/01/15 02:08:58;;;;;;;43.67;14.02;;;;;;;;;;5074723;28;20069;-83
2022/01/15 02:11:25;;;;;;;47.75;14.10;;;;;;;;;;5073812;28;20119;-83
2022/01/15 02:13:51;;;;;;;43.53;15.32;;;;;;;;;;5075700;28;20032;-83
2022/01/15 02:16:17;;;;;;;47.65;14.70;;;;;;;;;;5081813;28;20097;-85
2022/01/15 02:18:42;;;;;;;45.75;14.05;;;;;;;;;;5078456;28;20024;-84
2022/01/15 02:23:36;;;;;;;47.95;15.25;;;;;;;;;;5081582;28;20038;-85
2022/01/15 02:26:08;;;;;;;53.10;15.20;;;;;;;;;;5078068;28;20032;-83
2022/01/15 02:28:39;;;;;;;42.28;13.18;;;;;;;;;;5075368;28;20056;-83
2022/01/15 02:31:11;;;;;;;42.63;13.38;;;;;;;;;;5079046;28;20054;-84
2022/01/15 02:33:37;;;;;;;39.35;13.52;;;;;;;;;;5076379;28;20031;-85
2022/01/15 02:36:05;;;;;;;37.58;13.38;;;;;;;;;;5076997;28;20028;-85
2022/01/15 02:38:31;;;;;;;40.00;11.93;;;;;;;;;;5075087;28;20059;-84
2022/01/15 02:40:56;;;;;;;44.35;13.30;;;;;;;;;;5072281;28;20052;-83
2022/01/15 02:43:30;;;;;;;39.13;13.05;;;;;;;;;;5076000;28;20060;-82
2022/01/15 02:45:56;;;;;;;39.80;13.90;;;;;;;;;;5077586;28;20024;-84
2022/01/15 02:48:27;;;;;;;44.10;13.52;;;;;;;;;;5071961;28;20391;-84
2022/01/15 02:50:53;;;;;;;40.10;14.32;;;;;;;;;;5077433;28;20020;-85
2022/01/15 02:53:19;;;;;;;41.65;14.48;;;;;;;;;;5071917;28;20560;-83
2022/01/15 02:55:48;;;;;;;37.05;13.27;;;;;;;;;;5074492;28;20059;-83
2022/01/15 02:58:15;;;;;;;35.65;12.70;;;;;;;;;;5078063;28;20157;-84
2022/01/15 03:00:41;;;;;;;35.33;13.23;;;;;;;;;;5074226;28;20462;-84
2022/01/15 03:03:06;;;;;;;37.75;14.10;;;;;;;;;;5078185;28;20123;-82
2022/01/15 03:05:32;;;;;;;38.78;13.52;;;;;;;;;;5071130;28;20032;-84
2022/01/15 03:07:57;;;;;;;43.38;16.15;;;;;;;;;;5077588;28;20502;-84
2022/01/15 03:10:23;;;;;;;43.58;16.20;;;;;;;;;;5075763;28;20079;-84
2022/01/15 03:12:48;;;;;;;44.05;15.32;;;;;;;;;;5078184;28;20028;-83
2022/01/15 03:15:19;;;;;;;40.75;15.50;;;;;;;;;;5076288;28;20107;-83
2022/01/15 03:17:45;;;;;;;50.75;16.63;;;;;;;;;;5076423;28;20026;-83
2022/01/15 03:20:12;;;;;;;43.30;16.17;;;;;;;;;;5073280;28;20470;-85
2022/01/15 03:22:37;;;;;;;40.65;15.18;;;;;;;;;;5078057;28;20544;-84
2022/01/15 03:25:03;;;;;;;42.17;15.18;;;;;;;;;;5077181;28;20107;-84
2022/01/15 03:27:29;;;;;;;45.08;15.32;;;;;;;;;;5081103;28;20078;-82
2022/01/15 03:29:54;;;;;;;43.30;14.65;;;;;;;;;;5084423;28;20093;-85
2022/01/15 03:32:20;;;;;;;41.85;14.40;;;;;;;;;;5087561;28;20031;-85
2022/01/15 03:34:47;;;;;;;50.53;16.63;;;;;;;;;;5082008;28;20469;-83
2022/01/15 03:37:12;;;;;;;51.17;16.77;;;;;;;;;;5088467;28;20051;-83
2022/01/15 03:39:38;;;;;;;42.83;15.02;;;;;;;;;;5081238;28;20062;-82
2022/01/15 03:42:11;;;;;;;50.58;16.55;;;;;;;;;;5077510;28;20626;-84
2022/01/15 03:44:39;;;;;;;49.72;15.70;;;;;;;;;;5083775;28;20023;-84
2022/01/15 03:47:04;;;;;;;42.55;14.95;;;;;;;;;;5079268;28;20482;-83
2022/01/15 03:49:30;;;;;;;48.83;17.20;;;;;;;;;;5083630;28;20035;-85
2022/01/15 03:51:55;;;;;;;46.78;15.40;;;;;;;;;;5081107;28;20464;-85
2022/01/15 03:54:20;;;;;;;43.45;15.57;;;;;;;;;;5103241;28;20497;-83
2022/01/15 03:56:46;;;;;;;40.17;15.13;;;;;;;;;;5082299;28;20028;-83
2022/01/15 03:59:11;;;;;;;48.35;16.75;;;;;;;;;;5097319;28;20478;-83
2022/01/15 04:01:36;;;;;;;48.78;17.17;;;;;;;;;;5082302;28;20053;-83
2022/01/15 04:04:02;;;;;;;49.22;16.52;;;;;;;;;;5078748;28;20051;-84
2022/01/15 04:06:27;;;;;;;46.80;17.10;;;;;;;;;;5097329;28;20052;-84
2022/01/15 04:08:52;;;;;;;48.85;17.23;;;;;;;;;;5079886;28;20039;-84
2022/01/15 04:11:17;;;;;;;50.92;17.63;;;;;;;;;;5093696;28;20036;-84
2022/01/15 04:13:43;;;;;;;44.38;16.50;;;;;;;;;;5095659;28;20036;-83
2022/01/15 04:16:08;;;;;;;45.92;16.80;;;;;;;;;;5092958;28;20027;-84
2022/01/15 04:18:40;;;;;;;43.83;16.45;;;;;;;;;;5096511;28;20023;-83
2022/01/15 04:21:05;;;;;;;50.58;17.33;;;;;;;;;;5077926;28;20111;-83
2022/01/15 04:23:31;;;;;;;52.60;17.98;;;;;;;;;;5076247;28;20115;-83
2022/01/15 04:25:56;;;;;;;47.58;18.30;;;;;;;;;;5083757;28;20452;-84
2022/01/15 04:28:21;;;;;;;48.65;16.88;;;;;;;;;;5099403;28;20067;-82
2022/01/15 04:30:48;;;;;;;50.65;17.63;;;;;;;;;;5080524;28;20089;-84
2022/01/15 04:33:14;;;;;;;46.92;17.50;;;;;;;;;;5083993;28;20556;-84
2022/01/15 04:35:40;;;;;;;46.83;17.45;;;;;;;;;;5073683;28;20036;-85
2022/01/15 04:38:10;;;;;;;43.47;15.55;;;;;;;;;;5095964;28;20020;-85
2022/01/15 04:40:35;;;;;;;52.42;17.02;;;;;;;;;;5097887;28;20040;-84
2022/01/15 04:43:01;;;;;;;47.55;17.55;;;;;;;;;;5083149;28;20053;-84
2022/01/15 04:45:27;;;;;;;45.70;16.70;;;;;;;;;;5088249;28;20020;-83
2022/01/15 04:47:52;;;;;;;49.38;18.35;;;;;;;;;;5102087;28;20028;-84
2022/01/15 04:50:18;;;;;;;43.22;15.70;;;;;;;;;;5082352;28;20066;-84
2022/01/15 04:52:44;;;;;;;40.17;14.50;;;;;;;;;;5092259;28;20136;-83
2022/01/15 04:55:11;;;;;;;44.25;16.25;;;;;;;;;;5095463;27;20035;-84
2022/01/15 04:57:37;;;;;;;38.22;14.65;;;;;;;;;;5094088;28;20399;-84
2022/01/15 05:00:09;;;;;;;36.75;13.98;;;;;;;;;;5073479;28;20046;-83
2022/01/15 05:02:35;;;;;;;39.05;14.65;;;;;;;;;;5078137;28;21220;-83
2022/01/15 05:05:01;;;;;;;46.40;15.40;;;;;;;;;;5098289;27;20043;-84
2022/01/15 05:07:26;;;;;;;35.00;13.63;;;;;;;;;;5083817;28;20473;-84
2022/01/15 05:09:52;;;;;;;35.05;14.70;;;;;;;;;;5076595;28;20026;-83
2022/01/15 05:12:40;;;;;;;36.03;13.35;;;;;;;;;;5085285;28;20030;-84
2022/01/15 05:15:06;;;;;;;35.53;14.35;;;;;;;;;;5086380;28;20031;-82
2022/01/15 05:17:31;;;;;;;33.60;13.68;;;;;;;;;;5084009;28;20065;-84
2022/01/15 05:19:57;;;;;;;34.13;13.50;;;;;;;;;;5078245;28;20031;-83
2022/01/15 05:22:22;;;;;;;39.58;14.38;;;;;;;;;;5088592;28;20113;-83
2022/01/15 05:24:48;;;;;;;34.75;13.32;;;;;;;;;;5097482;28;20039;-83
2022/01/15 05:27:14;;;;;;;36.67;14.95;;;;;;;;;;5081228;28;20537;-83
2022/01/15 05:29:39;;;;;;;36.70;15.00;;;;;;;;;;5080359;28;20032;-82
2022/01/15 05:32:05;;;;;;;44.38;16.10;;;;;;;;;;5079655;28;20130;-84
2022/01/15 05:34:30;;;;;;;42.30;16.80;;;;;;;;;;5095433;28;20477;-83
2022/01/15 05:36:55;;;;;;;45.97;15.63;;;;;;;;;;5078307;28;20020;-84
2022/01/15 05:39:21;;;;;;;40.58;15.15;;;;;;;;;;5079568;28;20275;-84
2022/01/15 05:41:46;;;;;;;41.58;16.05;;;;;;;;;;5083888;28;20031;-85
2022/01/15 05:44:11;;;;;;;41.85;14.82;;;;;;;;;;5100201;28;20035;-82
2022/01/15 05:46:37;;;;;;;43.90;15.77;;;;;;;;;;5091121;28;20069;-83
2022/01/15 05:49:03;;;;;;;49.85;17.00;;;;;;;;;;5081697;28;20031;-84
2022/01/15 05:51:30;;;;;;;40.63;16.20;;;;;;;;;;5080837;28;20114;-83
2022/01/15 05:54:01;;;;;;;42.65;15.65;;;;;;;;;;5079831;28;20028;-84
2022/01/15 05:56:27;;;;;;;39.25;15.15;;;;;;;;;;5081478;28;20110;-83
2022/01/15 05:58:53;;;;;;;37.75;14.43;;;;;;;;;;5079952;28;20050;-84
2022/01/15 06:01:19;;;;;;;34.90;13.27;;;;;;;;;;5078868;28;20020;-83
2022/01/15 06:03:44;;;;;;;37.75;14.80;;;;;;;;;;5097212;28;20053;-83
2022/01/15 06:06:10;;;;;;;36.28;13.35;;;;;;;;;;5095032;28;20035;-85
2022/01/15 06:08:35;;;;;;;43.33;15.75;;;;;;;;;;5078335;28;20040;-84
2022/01/15 06:11:00;;;;;;;41.60;16.10;;;;;;;;;;5076961;28;20023;-84
2022/01/15 06:13:25;;;;;;;39.33;14.57;;;;;;;;;;5073628;28;20027;-83
2022/01/15 06:15:51;;;;;;;42.17;15.25;;;;;;;;;;5082084;28;21927;-83
2022/01/15 06:18:16;;;;;;;44.83;16.25;;;;;;;;;;5085706;28;20057;-82
2022/01/15 06:20:41;;;;;;;49.90;18.50;;;;;;;;;;5084457;28;20032;-83
2022/01/15 06:23:07;;;;;;;48.00;16.45;;;;;;;;;;5079374;28;20031;-83
2022/01/15 06:25:32;;;;;;;41.85;15.77;;;;;;;;;;5100759;28;20099;-83
2022/01/15 06:27:57;;;;;;;43.65;14.43;;;;;;;;;;5103173;28;20051;-83
2022/01/15 06:30:23;;;;;;;44.30;16.60;;;;;;;;;;5084948;28;20042;-83
2022/01/15 06:32:48;;;;;;;54.20;17.25;;;;;;;;;;5084151;28;20027;-83
2022/01/15 06:35:17;;;;;;;47.05;17.45;;;;;;;;;;5086421;28;20047;-84
2022/01/15 06:37:44;;;;;;;46.75;17.00;;;;;;;;;;5081874;28;20367;-84
2022/01/15 06:40:10;;;;;;;46.63;15.40;;;;;;;;;;5093018;28;20026;-83
2022/01/15 06:42:36;;;;;;;43.75;14.70;;;;;;;;;;5074731;28;20117;-83
2022/01/15 06:45:04;;;;;;;43.55;15.55;;;;;;;;;;5094964;28;20039;-84
2022/01/15 06:47:29;;;;;;;40.00;15.30;;;;;;;;;;5075296;28;20082;-84
2022/01/15 06:49:55;;;;;;;43.22;15.38;;;;;;;;;;5079542;28;20052;-84
2022/01/15 06:52:21;;;;;;;42.45;14.95;;;;;;;;;;5073593;28;20027;-84
2022/01/15 06:54:46;;;;;;;38.38;14.68;;;;;;;;;;5096925;28;20065;-83
2022/01/15 06:57:12;;;;;;;41.85;16.08;;;;;;;;;;5081537;28;20038;-83
2022/01/15 06:59:37;;;;;;;42.70;15.27;;;;;;;;;;5080687;28;20497;-83
2022/01/15 07:02:03;;;;;;;44.10;15.80;;;;;;;;;;5088162;28;20066;-83
2022/01/15 07:04:28;;;;;;;44.80;16.02;;;;;;;;;;5102795;28;20032;-83
2022/01/15 07:06:54;;;;;;;43.22;14.70;;;;;;;;;;5076848;28;20032;-84
2022/01/15 07:09:19;;;;;;;44.42;14.48;;;;;;;;;;5087495;28;20031;-84
2022/01/15 07:11:44;;;;;;;46.63;14.25;;;;;;;;;;5084756;28;20047;-84
2022/01/15 07:14:10;;;;;;;51.30;15.65;;;;;;;;;;5088070;28;20055;-82
2022/01/15 07:16:35;;;;;;;42.90;13.88;;;;;;;;;;5075976;28;20076;-84
2022/01/15 07:19:03;;;;;;;41.42;14.00;;;;;;;;;;5076395;28;20020;-84
2022/01/15 07:21:29;;;;;;;40.17;13.60;;;;;;;;;;5092917;28;20381;-84
2022/01/15 07:23:57;;;;;;;42.58;13.98;;;;;;;;;;5079474;28;20015;-83
2022/01/15 07:26:23;;;;;;;49.35;16.95;;;;;;;;;;5075032;28;20035;-83
2022/01/15 07:28:48;;;;;;;49.65;16.13;;;;;;;;;;5071967;28;20056;-84
2022/01/15 07:31:13;;;;;;;42.60;14.75;;;;;;;;;;5070898;28;20040;-82
2022/01/15 07:33:39;;;;;;;41.40;14.80;;;;;;;;;;5072782;28;20035;-82
2022/01/15 07:36:05;;;;;;;39.42;15.13;;;;;;;;;;5073709;28;20041;-84
2022/01/15 07:38:30;;;;;;;37.25;14.43;;;;;;;;;;5074517;28;20046;-85
2022/01/15 07:41:01;;;;;;;40.03;15.07;;;;;;;;;;5074742;28;20058;-84
2022/01/15 07:43:30;;;;;;;45.85;16.02;;;;;;;;;;5073828;28;20032;-83
2022/01/15 07:45:56;;;;;;;45.75;15.75;;;;;;;;;;5073831;28;21907;-83
2022/01/15 07:48:26;;;;;;;39.45;14.68;;;;;;;;;;5094292;28;20035;-85
2022/01/15 07:50:52;;;;;;;48.88;16.73;;;;;;;;;;5071394;28;22619;-83
2022/01/15 07:53:17;;;;;;;49.20;16.45;;;;;;;;;;5093750;28;20596;-84
2022/01/15 07:55:43;;;;;;;48.42;15.00;;;;;;;;;;5073616;28;20028;-83
2022/01/15 07:58:10;;;;;;;45.35;15.77;;;;;;;;;;5073026;28;20028;-85
2022/01/15 08:00:38;;;;;;;44.95;15.75;;;;;;;;;;5074674;28;20020;-84
2022/01/15 08:03:09;;;;;;;44.53;15.27;;;;;;;;;;5074485;28;20027;-83
2022/01/15 08:05:43;;;;;;;49.13;14.88;;;;;;;;;;5078494;28;20080;-83
2022/01/15 08:08:09;;;;;;;43.85;15.80;;;;;;;;;;5089531;28;20362;-82
2022/01/15 08:10:37;;;;;;;42.33;15.95;;;;;;;;;;5083054;28;20030;-83
2022/01/15 08:13:05;;;;;;;41.53;15.20;;;;;;;;;;5089536;28;20461;-84
2022/01/15 08:15:33;;;;;;;43.83;15.15;;;;;;;;;;5107937;28;20036;-84
2022/01/15 08:18:06;;;;;;;38.67;15.15;;;;;;;;;;5091995;28;20030;-83
2022/01/15 08:20:32;;;;;;;43.92;14.63;;;;;;;;;;5092291;28;20019;-82
2022/01/15 08:22:57;;;;;;;39.30;14.75;;;;;;;;;;5096607;28;20047;-86
2022/01/15 08:25:24;;;;;;;42.83;15.18;;;;;;;;;;5093650;28;20537;-84
2022/01/15 08:27:52;;;;;;;45.55;14.65;;;;;;;;;;5111973;28;20485;-82
2022/01/15 08:30:22;;;;;;;37.47;14.80;;;;;;;;;;5090966;28;20050;-83
2022/01/15 08:32:49;;;;;;;39.50;13.25;;;;;;;;;;5086443;28;20092;-82
2022/01/15 08:35:18;;;;;;;41.13;14.32;;;;;;;;;;5094120;28;20054;-84
2022/01/15 08:37:46;;;;;;;38.95;13.65;;;;;;;;;;5090607;28;20035;-84
2022/01/15 08:40:24;;;;;;;41.13;14.30;;;;;;;;;;5091876;28;20023;-83
2022/01/15 08:42:54;;;;;;;37.70;13.23;;;;;;;;;;5084126;28;20551;-84
2022/01/15 08:45:26;;;;;;;30.92;12.10;;;;;;;;;;5101085;28;20373;-85
2022/01/15 08:47:53;;;;;;;35.10;11.95;;;;;;;;;;5090202;28;20032;-83
2022/01/15 08:50:22;;;;;;;35.30;13.35;;;;;;;;;;5112316;28;20023;-83
2022/01/15 08:52:48;;;;;;;36.17;13.32;;;;;;;;;;5087454;28;20481;-82
2022/01/15 08:55:17;;;;;;;33.70;13.10;;;;;;;;;;5091636;28;20030;-86
2022/01/15 08:57:47;;;;;;;48.40;13.10;;;;;;;;;;5090972;28;20134;-83
2022/01/15 09:00:16;;;;;;;34.72;12.10;;;;;;;;;;5108171;28;20023;-83
2022/01/15 09:02:44;;;;;;;37.55;13.13;;;;;;;;;;5082277;28;20027;-83
2022/01/15 09:05:13;;;;;;;31.90;13.10;;;;;;;;;;5091628;28;20055;-83
2022/01/15 09:07:43;;;;;;;37.47;13.63;;;;;;;;;;5087307;28;20107;-83
2022/01/15 09:10:13;;;;;;;33.92;13.45;;;;;;;;;;5087078;28;20377;-84
2022/01/15 09:12:49;;;;;;;37.45;13.48;;;;;;;;;;5090379;28;20449;-84
2022/01/15 09:15:15;;;;;;;32.05;13.00;;;;;;;;;;5086468;28;20118;-84
2022/01/15 09:17:41;;;;;;;39.10;12.57;;;;;;;;;;5093983;28;20036;-83
2022/01/15 09:20:06;;;;;;;36.80;12.77;;;;;;;;;;5109157;28;20027;-82
2022/01/15 09:22:31;;;;;;;38.15;13.27;;;;;;;;;;5085767;28;20031;-84
2022/01/15 09:24:57;;;;;;;39.75;14.13;;;;;;;;;;5090132;28;20031;-82
2022/01/15 09:30:14;;;;;;;37.42;13.65;;;;;;;;;;5104814;28;20042;-83
2022/01/15 09:32:53;;;;;;;37.83;14.23;;;;;;;;;;5085381;28;20559;-84
2022/01/15 09:35:24;;;;;;;36.25;14.05;;;;;;;;;;5083791;28;20050;-85
2022/01/15 09:37:52;;;;;;;45.03;14.20;;;;;;;;;;5080877;28;20039;-83
2022/01/15 09:40:21;;;;;;;43.28;13.95;;;;;;;;;;5106607;28;20453;-83
2022/01/15 09:42:52;;;;;;;44.47;15.55;;;;;;;;;;5087300;28;20499;-85
2022/01/15 09:45:39;;;;;;;42.80;15.00;;;;;;;;;;5089809;28;20080;-84
2022/01/15 09:48:06;;;;;;;40.63;14.07;;;;;;;;;;5091510;28;20035;-84
2022/01/15 09:50:36;;;;;;;42.10;14.35;;;;;;;;;;5108577;28;20059;-83
2022/01/15 09:53:02;;;;;;;40.22;14.40;;;;;;;;;;5083040;28;20040;-83
2022/01/15 09:55:32;;;;;;;45.03;15.73;;;;;;;;;;5104608;28;20034;-83
2022/01/15 09:58:03;;;;;;;40.25;14.73;;;;;;;;;;5092831;28;20064;-83
2022/01/15 10:00:30;;;;;;;44.30;15.27;;;;;;;;;;5087748;28;20187;-85
2022/01/15 10:02:59;;;;;;;39.10;14.63;;;;;;;;;;5074518;28;20032;-84
2022/01/15 10:05:35;;;;;;;41.10;15.93;;;;;;;;;;5086905;28;20519;-83
2022/01/15 10:08:07;;;;;;;40.47;15.70;;;;;;;;;;5091419;28;20032;-83
2022/01/15 10:10:38;;;;;;;40.03;13.80;;;;;;;;;;5104039;28;20172;-84
2022/01/15 10:13:29;;;;;;;35.70;14.32;;;;;;;;;;5107319;28;20039;-86
2022/01/15 10:16:02;;;;;;;38.17;14.70;;;;;;;;;;5105418;28;20035;-85
2022/01/15 10:18:42;;;;;;;36.20;14.80;;;;;;;;;;5091485;28;20077;-84
2022/01/15 10:21:19;;;;;;;36.85;15.43;;;;;;;;;;5086422;28;20028;-82
2022/01/15 10:24:05;;;;;;;38.35;14.77;;;;;;;;;;5088852;28;20398;-83
2022/01/15 10:26:39;;;;;;;39.40;15.10;;;;;;;;;;5081794;28;20028;-85
2022/01/15 10:29:07;;;;;;;37.13;15.27;;;;;;;;;;5083686;28;20062;-84
2022/01/15 10:31:44;;;;;;;38.03;15.40;;;;;;;;;;5091095;28;20032;-86
2022/01/15 10:35:00;;;;;;;35.65;14.93;;;;;;;;;;5093319;28;20038;-84
2022/01/15 10:37:37;;;;;;;40.05;15.98;;;;;;;;;;5002901;28;20037;-84
2022/01/15 10:40:12;;;;;;;41.17;15.00;;;;;;;;;;4995575;28;20034;-86
2022/01/15 10:42:49;;;;;;;42.50;15.88;;;;;;;;;;5082133;28;20150;-83
2022/01/15 10:45:16;;;;;;;36.42;14.57;;;;;;;;;;5085763;28;20023;-84
2022/01/15 10:47:48;;;;;;;36.63;15.32;;;;;;;;;;5107028;28;20031;-83
2022/01/15 10:50:30;;;;;;;37.47;15.20;;;;;;;;;;5082444;28;20035;-85
2022/01/15 10:52:57;;;;;;;34.20;14.10;;;;;;;;;;5085577;28;20032;-85
2022/01/15 10:55:30;;;;;;;42.22;17.02;;;;;;;;;;5070425;28;20092;-83
2022/01/15 10:57:58;;;;;;;42.15;17.08;;;;;;;;;;5085287;28;20110;-84
2022/01/15 11:00:52;;;;;;;37.90;16.55;;;;;;;;;;5072571;28;20036;-84
2022/01/15 11:03:19;;;;;;;38.40;15.38;;;;;;;;;;5073921;28;20043;-85
2022/01/15 11:05:52;;;;;;;37.17;16.10;;;;;;;;;;5077236;28;20488;-83
2022/01/15 11:08:23;;;;;;;31.50;14.00;;;;;;;;;;5072379;28;20067;-84
2022/01/15 11:10:50;;;;;;;28.40;12.70;;;;;;;;;;5074014;28;20134;-83
2022/01/15 11:13:18;;;;;;;25.63;12.50;;;;;;;;;;5072621;28;20031;-84
2022/01/15 11:15:49;;;;;;;24.48;12.00;;;;;;;;;;5076974;28;20586;-84
2022/01/15 11:18:19;;;;;;;23.38;11.75;;;;;;;;;;5078746;28;20028;-84
2022/01/15 11:20:48;;;;;;;22.30;10.93;;;;;;;;;;5078805;28;20028;-83
2022/01/15 11:23:14;;;;;;;23.05;11.55;;;;;;;;;;5094101;28;20028;-85
2022/01/15 11:25:42;;;;;;;23.58;11.77;;;;;;;;;;5069531;28;20039;-83
2022/01/15 11:28:07;;;;;;;23.23;10.73;;;;;;;;;;5068327;28;20526;-84
2022/01/15 11:30:34;;;;;;;24.42;11.07;;;;;;;;;;5078756;28;20047;-83
2022/01/15 11:33:00;;;;;;;24.02;11.80;;;;;;;;;;5072214;28;20069;-83
2022/01/15 11:35:40;;;;;;;24.80;11.30;;;;;;;;;;5068658;28;20040;-83
2022/01/15 11:38:06;;;;;;;22.27;11.02;;;;;;;;;;5070731;28;20039;-84
2022/01/15 11:40:39;;;;;;;23.65;10.98;;;;;;;;;;5068928;28;20086;-84
2022/01/15 11:43:23;;;;;;;24.75;11.80;;;;;;;;;;5067102;28;20784;-84
2022/01/15 11:45:52;;;;;;;24.13;10.82;;;;;;;;;;5072658;28;20020;-84
2022/01/15 11:48:29;;;;;;;23.75;11.88;;;;;;;;;;5065772;28;21487;-85
2022/01/15 11:51:17;;;;;;;23.98;12.52;;;;;;;;;;5072764;28;20024;-84
2022/01/15 11:54:01;;;;;;;25.40;11.25;;;;;;;;;;5083633;28;20501;-83
2022/01/15 11:56:46;;;;;;;23.75;10.75;;;;;;;;;;5071950;28;20501;-86
2022/01/15 11:59:27;;;;;;;27.10;12.48;;;;;;;;;;5074031;28;20028;-86
2022/01/15 12:01:57;;;;;;;25.42;11.98;;;;;;;;;;5075305;28;20066;-85
2022/01/15 12:04:39;;;;;;;26.23;12.85;;;;;;;;;;5074206;28;20035;-84
2022/01/15 12:07:04;;;;;;;27.02;12.32;;;;;;;;;;5078247;28;20453;-84
2022/01/15 12:09:43;;;;;;;26.80;12.02;;;;;;;;;;5073387;28;20048;-84
2022/01/15 12:12:28;;;;;;;28.25;12.57;;;;;;;;;;5074505;28;20033;-84
2022/01/15 12:14:58;;;;;;;26.00;12.15;;;;;;;;;;5072505;28;20020;-83
2022/01/15 12:17:25;;;;;;;29.13;14.10;;;;;;;;;;5073779;28;20028;-83
2022/01/15 12:19:54;;;;;;;26.38;13.27;;;;;;;;;;5072071;28;20048;-84
2022/01/15 12:22:39;;;;;;;27.83;12.73;;;;;;;;;;5079117;28;20389;-84
2022/01/15 12:25:28;;;;;;;32.22;13.32;;;;;;;;;;5074820;28;20478;-86
2022/01/15 12:28:05;;;;;;;34.38;13.65;;;;;;;;;;5076735;28;20109;-84
2022/01/15 12:30:56;;;;;;;33.67;15.18;;;;;;;;;;5076514;28;20024;-83
2022/01/15 12:33:22;;;;;;;35.97;15.02;;;;;;;;;;5075827;28;20035;-85
2022/01/15 12:35:51;;;;;;;38.05;15.68;;;;;;;;;;5076434;28;20028;-86
2022/01/15 12:38:28;;;;;;;38.35;16.83;;;;;;;;;;5076485;28;20036;-84
2022/01/15 12:40:54;;;;;;;39.90;16.30;;;;;;;;;;5079080;28;20032;-85
2022/01/15 12:43:31;;;;;;;36.78;15.88;;;;;;;;;;5080304;28;20486;-84
2022/01/15 12:46:03;;;;;;;37.00;15.70;;;;;;;;;;5078110;28;20027;-83
2022/01/15 12:48:31;;;;;;;37.85;15.73;;;;;;;;;;5077588;28;20036;-84
2022/01/15 12:51:03;;;;;;;35.20;15.15;;;;;;;;;;5086012;28;20489;-83
2022/01/15 12:53:33;;;;;;;34.10;15.25;;;;;;;;;;5077632;28;20344;-83
2022/01/15 12:56:07;;;;;;;39.03;16.42;;;;;;;;;;5076685;28;20447;-84
2022/01/15 12:58:32;;;;;;;36.08;17.05;;;;;;;;;;5075163;28;20025;-83
2022/01/15 13:01:03;;;;;;;33.13;15.02;;;;;;;;;;5076659;28;20085;-83
2022/01/15 13:03:29;;;;;;;38.42;16.27;;;;;;;;;;5084899;28;20024;-84
2022/01/15 13:06:03;;;;;;;32.45;14.70;;;;;;;;;;5084134;28;20025;-84
2022/01/15 13:08:42;;;;;;;32.97;15.70;;;;;;;;;;5086918;28;20028;-83
2022/01/15 13:13:44;;;;;;;38.53;17.38;;;;;;;;;;5086740;28;20454;-84
2022/01/15 13:16:34;;;;;;;37.70;17.02;;;;;;;;;;5081780;28;20394;-83
2022/01/15 13:19:07;;;;;;;38.40;17.25;;;;;;;;;;5087312;28;20028;-84
2022/01/15 13:21:40;;;;;;;41.57;17.40;;;;;;;;;;5087567;28;20016;-83
2022/01/15 13:24:11;;;;;;;;;;;;;;;;;;5078037;28;20024;-84
2022/01/15 13:26:52;;;;;;;31.77;14.40;;;;;;;;;;5074006;28;19912;-84
2022/01/15 13:29:39;;;;;;;37.35;14.88;;;;;;;;;;5073527;28;20110;-82
2022/01/15 13:32:10;;;;;;;39.83;16.98;;;;;;;;;;5078452;28;20032;-83
2022/01/15 13:34:39;;;;;;;38.47;17.00;;;;;;;;;;5073156;28;20028;-84
2022/01/15 13:37:10;;;;;;;40.67;17.98;;;;;;;;;;5075780;28;20129;-83
2022/01/15 13:39:39;;;;;;;42.10;18.00;;;;;;;;;;5075880;28;20020;-85
2022/01/15 13:42:29;;;;;;;40.20;17.17;;;;;;;;;;5060022;28;20056;-84
2022/01/15 13:44:54;;;;;;;40.03;17.58;;;;;;;;;;5071758;28;20028;-85
2022/01/15 13:47:40;;;;;;;37.70;17.17;;;;;;;;;;5074519;28;20028;-87
2022/01/15 13:53:30;;;;;;;38.22;16.33;;;;;;;;;;5081052;28;20080;-84
2022/01/15 13:56:31;;;;;;;35.97;16.13;;;;;;;;;;5078216;28;20034;-84
2022/01/15 13:59:01;;;;;;;39.20;16.50;;;;;;;;;;5055955;28;20044;-85
2022/01/15 14:01:30;;;;;;;37.17;16.70;;;;;;;;;;5075167;28;20026;-84
2022/01/15 14:03:56;;;;;;;34.10;14.95;;;;;;;;;;5074855;28;20467;-85
2022/01/15 14:06:23;;;;;;;37.80;16.98;;;;;;;;;;5078957;28;20027;-85
2022/01/15 14:08:59;;;;;;;38.45;16.63;;;;;;;;;;5080709;28;20614;-84
2022/01/15 14:11:29;;;;;;;36.60;16.90;;;;;;;;;;5078505;28;20086;-86
2022/01/15 14:14:06;;;;;;;36.97;16.58;;;;;;;;;;5075110;28;20643;-83
2022/01/15 14:16:34;;;;;;;40.72;17.10;;;;;;;;;;5078641;28;20025;-84
2022/01/15 14:19:14;;;;;;;34.60;16.15;;;;;;;;;;5077381;28;20457;-84
2022/01/15 14:21:40;;;;;;;36.28;17.10;;;;;;;;;;5069208;28;20023;-85
2022/01/15 14:24:15;;;;;;;38.72;16.17;;;;;;;;;;5068162;28;20548;-85
2022/01/15 14:26:56;;;;;;;42.58;17.95;;;;;;;;;;5069681;28;20106;-85
2022/01/15 14:29:21;;;;;;;39.45;16.90;;;;;;;;;;5071705;28;20048;-85
2022/01/15 14:31:47;;;;;;;42.30;17.42;;;;;;;;;;5078255;28;20032;-85
2022/01/15 14:34:17;;;;;;;41.20;18.90;;;;;;;;;;5075017;28;20032;-87
2022/01/15 14:36:44;;;;;;;37.40;16.65;;;;;;;;;;5079910;28;20131;-85
2022/01/15 14:39:20;;;;;;;37.35;16.33;;;;;;;;;;5067249;28;20485;-84
2022/01/15 14:41:48;;;;;;;40.30;16.98;;;;;;;;;;5066839;28;20029;-85
2022/01/15 14:44:19;;;;;;;39.47;16.35;;;;;;;;;;5070022;28;20389;-86
2022/01/15 14:46:47;;;;;;;39.85;17.70;;;;;;;;;;5075054;28;20128;-86
2022/01/15 14:49:16;;;;;;;39.53;16.45;;;;;;;;;;5075358;28;20115;-84
2022/01/15 14:51:42;;;;;;;38.95;18.23;;;;;;;;;;5067422;28;21576;-85
2022/01/15 14:54:12;;;;;;;39.55;17.85;;;;;;;;;;5071009;28;20076;-84